EGOM

RAF Spadeadam Airport

Spadeadam, United Kingdom
METAR EGOM 151950Z AUTO 26009KT 9999 NCD 17/13 Q1013
Observed Flight Rules
Jul-15 @ 19:50 UTC (an hour ago) Visual Flight Rules
Wind Visibility Clouds
260° at 9 knots 10,000+ meters
  • Clear skies
Temperatures Readings
Current 17°C / 63°F
Dewpoint 13°C / 55°F
Humidity 77%
Altimeter 29.91" Hg
Pressure 1013 hPa
Elevation 325
METAR EGOM 151950Z AUTO 26009KT 9999 NCD 17/13 Q1013
Observed Flight Rules
Jul-15 @ 19:50 UTC
(an hour ago)
VFR
Wind Visibility
260° at 9 knots 10,000+ meters
Clouds
  • Clear skies
Temperature Dewpoint
17°C / 63°F 13°C / 55°F
Humidity Altimeter Pressure
77% 29.91" Hg 1013 hPa